createdAt,value
2022-11-01T00:01:44.821Z,101292.09
2022-11-01T00:04:13.010Z,101280.91
2022-11-01T00:06:39.480Z,101293.84
2022-11-01T00:09:07.008Z,101297.69
2022-11-01T00:11:33.550Z,101291.06
2022-11-01T00:14:00.016Z,101291.44
2022-11-01T00:16:26.470Z,101290.56
2022-11-01T00:18:52.977Z,101289.63
2022-11-01T00:21:21.087Z,101289.59
2022-11-01T00:23:47.822Z,101282.84
2022-11-01T00:26:17.141Z,101290.81
2022-11-01T00:28:43.654Z,101283.75
2022-11-01T00:31:12.749Z,101286.41
2022-11-01T00:33:39.778Z,101289.59
2022-11-01T00:36:09.748Z,101292.25
2022-11-01T00:38:36.419Z,101286.84
2022-11-01T00:41:04.127Z,101280.66
2022-11-01T00:43:31.684Z,101275.84
2022-11-01T00:45:58.365Z,101272.94
2022-11-01T00:48:24.930Z,101270.75
2022-11-01T00:50:51.832Z,101268.28
2022-11-01T00:53:18.360Z,101263.78
2022-11-01T00:55:47.224Z,101261.59
2022-11-01T00:58:13.691Z,101261.25
2022-11-01T01:00:40.496Z,101262.34
2022-11-01T01:03:07.270Z,101258.13
2022-11-01T01:05:35.086Z,101258.91
2022-11-01T01:08:02.294Z,101253.31
2022-11-01T01:10:28.844Z,101249.53
2022-11-01T01:12:55.292Z,101241.41
2022-11-01T01:15:21.766Z,101244.44
2022-11-01T01:17:50.755Z,101249.28
2022-11-01T01:20:17.202Z,101242.47
2022-11-01T01:22:43.973Z,101241.94
2022-11-01T01:25:10.856Z,101245.13
2022-11-01T01:27:39.901Z,101245.22
2022-11-01T01:30:07.866Z,101236.91
2022-11-01T01:32:34.670Z,101233.31
2022-11-01T01:35:01.173Z,101235.81
2022-11-01T01:37:27.680Z,101222.44
2022-11-01T01:39:54.419Z,101228.84
2022-11-01T01:42:27.076Z,101230.75
2022-11-01T01:44:56.428Z,101223.94
2022-11-01T01:47:34.641Z,101218.59
2022-11-01T01:50:19.402Z,101217.25
2022-11-01T01:52:51.663Z,101213.06
2022-11-01T01:55:22.281Z,101212.09
2022-11-01T01:57:49.195Z,101216.22
2022-11-01T02:00:15.960Z,101211.19
2022-11-01T02:02:42.772Z,101211.63
2022-11-01T02:05:19.429Z,101213.50
2022-11-01T02:07:46.469Z,101207.75
2022-11-01T02:10:14.571Z,101204.50
2022-11-01T02:12:45.143Z,101194.13
2022-11-01T02:15:13.622Z,101204.09
2022-11-01T02:17:57.683Z,101198.41
2022-11-01T02:20:39.978Z,101201.06
2022-11-01T02:23:32.313Z,101193.94
2022-11-01T02:26:07.903Z,101195.88
2022-11-01T02:29:00.449Z,101197.63
2022-11-01T02:31:36.406Z,101200.53
2022-11-01T02:34:41.434Z,101202.19
2022-11-01T02:37:17.020Z,101198.44
2022-11-01T02:39:48.519Z,101197.16
2022-11-01T02:42:20.287Z,101203.06
2022-11-01T02:44:55.333Z,101190.75
2022-11-01T02:47:22.562Z,101195.28
2022-11-01T02:49:52.478Z,101202.25
2022-11-01T02:52:23.779Z,101200.22
2022-11-01T02:54:53.166Z,101211.03
2022-11-01T02:58:05.903Z,101204.00
2022-11-01T03:00:35.255Z,101206.38
2022-11-01T03:03:18.426Z,101212.53
2022-11-01T03:06:00.186Z,101201.38
2022-11-01T03:08:51.714Z,101206.31
2022-11-01T03:11:24.284Z,101210.66
2022-11-01T03:13:56.701Z,101205.91
2022-11-01T03:16:38.348Z,101210.41
2022-11-01T03:19:06.937Z,101213.47
2022-11-01T03:21:40.418Z,101204.16
2022-11-01T03:24:25.051Z,101220.31
2022-11-01T03:27:17.955Z,101209.38
2022-11-01T03:29:49.196Z,101213.69
2022-11-01T03:32:17.093Z,101213.50
2022-11-01T03:34:44.321Z,101220.63
2022-11-01T03:37:11.859Z,101218.28
2022-11-01T03:39:48.624Z,101212.84
2022-11-01T03:42:19.153Z,101208.31
2022-11-01T03:44:47.944Z,101213.13
2022-11-01T03:47:14.439Z,101203.78
2022-11-01T03:49:41.047Z,101208.72
2022-11-01T03:52:08.712Z,101203.63
2022-11-01T03:54:35.139Z,101201.44
2022-11-01T03:57:01.931Z,101198.44
2022-11-01T03:59:28.464Z,101200.56
2022-11-01T04:01:55.123Z,101193.81
2022-11-01T04:04:22.770Z,101193.41
2022-11-01T04:06:50.675Z,101186.63
2022-11-01T04:09:17.087Z,101184.38
2022-11-01T04:11:43.550Z,101183.84
2022-11-01T04:14:28.847Z,101180.91
2022-11-01T04:17:13.776Z,101176.84
2022-11-01T04:19:58.937Z,101170.78
2022-11-01T04:22:25.457Z,101158.91
2022-11-01T04:24:51.945Z,101160.66
2022-11-01T04:27:18.362Z,101156.44
2022-11-01T04:29:44.850Z,101155.50
2022-11-01T04:32:11.275Z,101148.09
2022-11-01T04:34:43.381Z,101152.16
2022-11-01T04:37:10.422Z,101149.72
2022-11-01T04:39:37.194Z,101143.56
2022-11-01T04:42:03.761Z,101155.59
2022-11-01T04:44:30.250Z,101145.28
2022-11-01T04:46:56.678Z,101154.22
2022-11-01T04:49:23.113Z,101159.81
2022-11-01T04:51:49.620Z,101150.34
2022-11-01T04:54:16.223Z,101153.94
2022-11-01T04:56:42.657Z,101145.16
2022-11-01T04:59:09.185Z,101133.03
2022-11-01T05:01:35.730Z,101140.81
2022-11-01T05:04:02.306Z,101144.59
2022-11-01T05:06:29.897Z,101140.97
2022-11-01T05:08:56.314Z,101132.16
2022-11-01T05:11:25.671Z,101125.53
2022-11-01T05:13:52.445Z,101121.44
2022-11-01T05:16:20.394Z,101113.91
2022-11-01T05:18:47.461Z,101122.03
2022-11-01T05:21:14.157Z,101112.38
2022-11-01T05:23:40.601Z,101104.56
2022-11-01T05:26:07.045Z,101104.91
2022-11-01T05:28:33.644Z,101099.22
2022-11-01T05:31:00.416Z,101100.44
2022-11-01T05:33:26.857Z,101090.88
2022-11-01T05:35:53.382Z,101092.47
2022-11-01T05:38:19.953Z,101088.00
2022-11-01T05:40:46.442Z,101085.66
2022-11-01T05:43:12.891Z,101078.13
2022-11-01T05:45:39.348Z,101073.47
2022-11-01T05:48:05.928Z,101091.91
2022-11-01T05:50:32.471Z,101095.16
2022-11-01T05:53:10.151Z,101090.97
2022-11-01T05:55:37.007Z,101082.91
2022-11-01T05:58:03.711Z,101086.88
2022-11-01T06:00:30.472Z,101078.31
2022-11-01T06:02:58.233Z,101079.09
2022-11-01T06:05:25.643Z,101080.97
2022-11-01T06:07:52.101Z,101095.63
2022-11-01T06:10:18.682Z,101085.09
2022-11-01T06:12:45.117Z,101090.50
2022-11-01T06:15:11.708Z,101096.75
2022-11-01T06:17:38.168Z,101101.25
2022-11-01T06:20:05.041Z,101096.00
2022-11-01T06:22:31.557Z,101092.56
2022-11-01T06:24:58.020Z,101091.03
2022-11-01T06:27:24.454Z,101089.69
2022-11-01T06:29:50.885Z,101086.16
2022-11-01T06:32:18.659Z,101093.72
2022-11-01T06:34:45.192Z,101077.88
2022-11-01T06:37:11.810Z,101082.56
2022-11-01T06:39:38.350Z,101078.88
2022-11-01T06:42:04.924Z,101081.50
2022-11-01T06:44:31.493Z,101079.50
2022-11-01T06:46:58.983Z,101089.16
2022-11-01T06:49:25.495Z,101085.31
2022-11-01T06:51:51.975Z,101083.25
2022-11-01T06:54:18.495Z,101077.31
2022-11-01T06:56:47.704Z,101077.09
2022-11-01T06:59:16.411Z,101083.41
2022-11-01T07:01:44.124Z,101074.38
2022-11-01T07:06:38.104Z,101068.00
2022-11-01T07:09:04.688Z,101062.25
2022-11-01T07:11:31.942Z,101070.16
2022-11-01T07:13:59.376Z,101055.41
2022-11-01T07:16:26.455Z,101045.94
2022-11-01T07:18:52.953Z,101058.88
2022-11-01T07:21:19.488Z,101054.38
2022-11-01T07:23:46.030Z,101059.34
2022-11-01T07:26:12.474Z,101058.25
2022-11-01T07:28:39.987Z,101050.59
2022-11-01T07:31:06.836Z,101060.56
2022-11-01T07:33:33.265Z,101055.16
2022-11-01T07:36:01.920Z,101049.06
2022-11-01T07:38:28.469Z,101051.81
2022-11-01T07:40:55.047Z,101046.53
2022-11-01T07:43:22.727Z,101044.78
2022-11-01T07:45:49.709Z,101032.25
2022-11-01T07:48:18.255Z,101030.88
2022-11-01T07:50:45.003Z,101021.75
2022-11-01T07:53:13.778Z,101018.25
2022-11-01T07:55:40.939Z,101023.28
2022-11-01T07:58:07.950Z,101025.94
2022-11-01T08:03:10.922Z,101013.66
2022-11-01T08:05:37.788Z,101020.66
2022-11-01T08:08:05.663Z,101016.38
2022-11-01T08:10:36.165Z,101011.66
2022-11-01T08:13:06.994Z,101005.13
2022-11-01T08:15:33.770Z,100996.22
2022-11-01T08:18:01.267Z,100995.72
2022-11-01T08:20:28.153Z,100989.63
2022-11-01T08:22:54.697Z,100990.38
2022-11-01T08:25:21.957Z,100996.00
2022-11-01T08:27:48.516Z,100995.31
2022-11-01T08:30:15.635Z,101003.34
2022-11-01T08:32:42.062Z,101015.41
2022-11-01T08:35:08.804Z,101009.78
2022-11-01T08:37:35.264Z,101005.28
2022-11-01T08:40:01.765Z,101005.06
2022-11-01T08:42:35.558Z,101008.00
2022-11-01T08:45:02.009Z,101014.28
2022-11-01T08:47:28.451Z,101023.28
2022-11-01T08:49:54.966Z,101054.44
2022-11-01T08:52:21.475Z,101077.25
2022-11-01T08:54:47.972Z,101069.88
2022-11-01T08:57:16.031Z,101066.34
2022-11-01T08:59:42.467Z,101067.03
2022-11-01T09:02:12.148Z,101076.25
2022-11-01T09:04:38.779Z,101086.66
2022-11-01T09:07:05.213Z,101078.97
2022-11-01T09:09:31.673Z,101092.25
2022-11-01T09:11:58.332Z,101075.22
2022-11-01T09:14:26.215Z,101072.03
2022-11-01T09:16:52.730Z,101077.53
2022-11-01T09:19:19.302Z,101069.75
2022-11-01T09:21:46.587Z,101061.94
2022-11-01T09:24:14.437Z,101063.16
2022-11-01T09:26:40.993Z,101067.56
2022-11-01T09:29:07.865Z,101077.81
2022-11-01T09:31:35.080Z,101055.59
2022-11-01T09:34:01.558Z,101048.22
2022-11-01T09:36:28.581Z,101048.00
2022-11-01T09:38:56.255Z,101045.81
2022-11-01T09:41:40.766Z,101050.75
2022-11-01T09:44:08.150Z,101042.84
2022-11-01T09:46:44.660Z,101059.34
2022-11-01T09:49:20.780Z,101054.63
2022-11-01T09:51:47.336Z,101052.97
2022-11-01T09:54:14.001Z,101052.22
2022-11-01T09:56:42.315Z,101043.22
2022-11-01T09:59:47.773Z,101034.66
2022-11-01T10:02:42.553Z,101022.47
2022-11-01T10:05:37.101Z,101020.81
2022-11-01T10:08:14.543Z,101020.69
2022-11-01T10:11:08.817Z,101019.84
2022-11-01T10:13:41.188Z,101012.78
2022-11-01T10:16:42.090Z,101006.88
2022-11-01T10:19:17.470Z,101000.69
2022-11-01T10:21:48.570Z,100996.22
2022-11-01T10:24:25.262Z,100999.06
2022-11-01T10:26:56.533Z,101004.34
2022-11-01T10:29:35.094Z,100996.41
2022-11-01T10:32:02.700Z,100994.88
2022-11-01T10:34:38.030Z,101001.00
2022-11-01T10:37:18.781Z,100981.78
2022-11-01T10:39:57.935Z,100983.97
2022-11-01T10:42:28.901Z,100989.03
2022-11-01T10:44:59.563Z,100984.53
2022-11-01T10:47:28.002Z,100978.56
2022-11-01T10:50:06.698Z,100980.03
2022-11-01T10:52:44.753Z,100978.69
2022-11-01T10:55:15.149Z,100982.41
2022-11-01T10:57:48.965Z,100982.78
2022-11-01T11:00:18.116Z,100987.59
2022-11-01T11:02:51.142Z,100984.19
2022-11-01T11:05:18.068Z,100994.97
2022-11-01T11:07:46.443Z,101006.44
2022-11-01T11:10:24.095Z,101008.50
2022-11-01T11:12:53.893Z,101002.13
2022-11-01T11:15:43.528Z,101014.34
2022-11-01T11:18:19.909Z,101016.53
2022-11-01T11:20:50.616Z,101025.44
2022-11-01T11:23:19.766Z,100998.28
2022-11-01T11:25:46.347Z,101007.50
2022-11-01T11:28:23.966Z,101017.84
2022-11-01T11:30:50.586Z,101018.41
2022-11-01T11:33:18.279Z,101019.16
2022-11-01T11:35:53.195Z,101022.13
2022-11-01T11:38:39.997Z,101014.34
2022-11-01T11:41:09.253Z,101007.06
2022-11-01T11:43:37.159Z,101005.22
2022-11-01T11:46:26.370Z,101003.78
2022-11-01T11:49:07.279Z,101002.69
2022-11-01T11:51:37.678Z,100997.63
2022-11-01T11:54:22.766Z,101003.34
2022-11-01T11:57:04.245Z,100998.16
2022-11-01T11:59:32.241Z,101012.47
2022-11-01T12:02:01.905Z,101012.00
2022-11-01T12:04:39.599Z,101007.03
2022-11-01T12:07:08.109Z,101002.19
2022-11-01T12:09:43.821Z,101001.69
2022-11-01T12:12:24.258Z,101006.66
2022-11-01T12:14:51.641Z,101002.22
2022-11-01T12:17:24.076Z,101006.75
2022-11-01T12:20:20.296Z,101000.81
2022-11-01T12:23:02.799Z,101003.91
2022-11-01T12:25:29.427Z,100996.22
2022-11-01T12:28:24.965Z,100995.75
2022-11-01T12:30:53.271Z,100979.91
2022-11-01T12:33:31.313Z,100985.44
2022-11-01T12:35:59.891Z,100980.38
2022-11-01T12:38:51.343Z,100966.06
2022-11-01T12:41:36.461Z,100966.84
2022-11-01T12:44:25.914Z,100974.88
2022-11-01T12:47:25.551Z,100973.66
2022-11-01T12:49:56.762Z,100954.63
2022-11-01T12:52:30.319Z,100959.66
2022-11-01T12:55:19.874Z,100950.66
2022-11-01T12:57:47.620Z,100964.63
2022-11-01T13:00:18.045Z,100972.22
2022-11-01T13:03:07.940Z,100963.72
2022-11-01T13:05:53.124Z,100950.75
2022-11-01T13:08:52.388Z,100936.91
2022-11-01T13:11:31.650Z,100930.41
2022-11-01T13:14:29.617Z,100941.84
2022-11-01T13:17:36.418Z,100949.38
2022-11-01T13:20:22.292Z,100963.75
2022-11-01T13:22:57.884Z,100964.28
2022-11-01T13:25:37.532Z,100950.97
2022-11-01T13:28:29.389Z,100970.88
2022-11-01T13:31:16.848Z,100960.31
2022-11-01T13:34:09.073Z,100960.66
2022-11-01T13:37:04.585Z,100955.94
2022-11-01T13:39:52.918Z,100961.09
2022-11-01T13:42:29.214Z,100966.50
2022-11-01T13:45:17.901Z,100976.19
2022-11-01T13:48:02.984Z,100972.56
2022-11-01T13:50:47.112Z,100970.66
2022-11-01T13:53:30.632Z,100971.34
2022-11-01T13:56:02.784Z,100972.13
2022-11-01T13:58:29.561Z,100968.59
2022-11-01T14:00:56.334Z,100973.09
2022-11-01T14:03:32.690Z,100976.19
2022-11-01T14:06:09.418Z,100963.66
2022-11-01T14:08:47.486Z,100956.63
2022-11-01T14:11:45.251Z,100946.28
2022-11-01T14:14:29.837Z,100939.78
2022-11-01T14:17:35.917Z,100938.13
2022-11-01T14:20:08.859Z,100920.75
2022-11-01T14:22:36.851Z,100916.69
2022-11-01T14:25:26.596Z,100907.66
2022-11-01T14:28:18.073Z,100902.50
2022-11-01T14:30:47.069Z,100914.91
2022-11-01T14:33:15.923Z,100937.03
2022-11-01T14:35:45.826Z,100931.53
2022-11-01T14:38:23.432Z,100914.84
2022-11-01T14:40:56.724Z,100906.16
2022-11-01T14:43:36.464Z,100907.50
2022-11-01T14:46:07.744Z,100905.19
2022-11-01T14:49:00.314Z,100910.78
2022-11-01T14:51:41.010Z,100908.06
2022-11-01T14:54:31.263Z,100884.41
2022-11-01T14:56:58.653Z,100883.75
2022-11-01T14:59:32.331Z,100893.31
2022-11-01T15:02:03.195Z,100896.97
2022-11-01T15:04:32.392Z,100893.13
2022-11-01T15:07:00.223Z,100898.50
2022-11-01T15:09:29.136Z,100905.75
2022-11-01T15:12:04.101Z,100898.16
2022-11-01T15:14:33.396Z,100896.22
2022-11-01T15:16:59.944Z,100892.88
2022-11-01T15:19:31.766Z,100907.75
2022-11-01T15:22:03.208Z,100913.78
2022-11-01T15:24:32.680Z,100914.66
2022-11-01T15:27:14.003Z,100905.66
2022-11-01T15:29:42.391Z,100905.66
2022-11-01T15:32:21.870Z,100905.44
2022-11-01T15:34:55.539Z,100906.97
2022-11-01T15:37:24.420Z,100908.50
2022-11-01T15:39:50.918Z,100907.28
2022-11-01T15:42:24.605Z,100900.94
2022-11-01T15:44:51.080Z,100907.53
2022-11-01T15:47:23.018Z,100900.94
2022-11-01T15:50:02.296Z,100901.25
2022-11-01T15:52:35.556Z,100915.75
2022-11-01T15:55:26.333Z,100908.16
2022-11-01T15:57:56.917Z,100919.50
2022-11-01T16:00:25.392Z,100933.44
2022-11-01T16:03:05.884Z,100900.69
2022-11-01T16:05:38.723Z,100903.69
2022-11-01T16:08:07.634Z,100900.13
2022-11-01T16:10:34.624Z,100907.28
2022-11-01T16:13:03.326Z,100911.00
2022-11-01T16:15:52.828Z,100912.13
2022-11-01T16:18:24.019Z,100921.25
2022-11-01T16:21:01.077Z,100916.94
2022-11-01T16:23:29.961Z,100911.91
2022-11-01T16:26:05.762Z,100909.59
2022-11-01T16:28:39.740Z,100908.13
2022-11-01T16:31:28.515Z,100919.56
2022-11-01T16:33:56.310Z,100916.00
2022-11-01T16:36:36.027Z,100914.25
2022-11-01T16:39:24.633Z,100903.69
2022-11-01T16:41:52.710Z,100906.53
2022-11-01T16:44:19.275Z,100905.22
2022-11-01T16:46:45.899Z,100904.47
2022-11-01T16:49:15.042Z,100909.34
2022-11-01T16:51:41.905Z,100928.44
2022-11-01T16:54:10.267Z,100918.44
2022-11-01T16:56:46.211Z,100923.78
2022-11-01T16:59:35.495Z,100921.06
2022-11-01T17:02:03.897Z,100920.38
2022-11-01T17:04:30.419Z,100916.00
2022-11-01T17:06:59.657Z,100921.94
2022-11-01T17:09:35.463Z,100922.47
2022-11-01T17:12:02.064Z,100926.63
2022-11-01T17:14:28.752Z,100926.22
2022-11-01T17:16:56.401Z,100929.69
2022-11-01T17:19:26.394Z,100936.78
2022-11-01T17:21:53.793Z,100931.25
2022-11-01T17:24:23.356Z,100937.97
2022-11-01T17:26:50.806Z,100935.22
2022-11-01T17:29:17.353Z,100935.66
2022-11-01T17:31:43.865Z,100928.94
2022-11-01T17:34:10.314Z,100939.94
2022-11-01T17:36:38.720Z,100935.28
2022-11-01T17:39:05.383Z,100943.72
2022-11-01T17:41:33.099Z,100941.28
2022-11-01T17:43:59.623Z,100936.78
2022-11-01T17:46:26.283Z,100939.75
2022-11-01T17:48:52.745Z,100942.81
2022-11-01T17:51:19.573Z,100942.72
2022-11-01T17:53:46.193Z,100944.50
2022-11-01T17:56:12.663Z,100949.78
2022-11-01T17:58:39.203Z,100944.09
2022-11-01T18:01:07.676Z,100954.22
2022-11-01T18:03:34.227Z,100950.34
2022-11-01T18:06:00.730Z,100948.44
2022-11-01T18:08:28.163Z,100957.34
2022-11-01T18:11:00.930Z,100953.94
2022-11-01T18:13:52.147Z,100945.25
2022-11-01T18:16:18.550Z,100947.13
2022-11-01T18:19:09.248Z,100947.22
2022-11-01T18:22:08.802Z,100944.56
2022-11-01T18:24:57.487Z,100948.19
2022-11-01T18:27:31.295Z,100948.06
2022-11-01T18:29:57.795Z,100937.16
2022-11-01T18:32:39.001Z,100941.47
2022-11-01T18:35:22.075Z,100943.31
2022-11-01T18:38:13.975Z,100936.91
2022-11-01T18:41:03.416Z,100940.47
2022-11-01T18:43:35.188Z,100940.44
2022-11-01T18:46:27.119Z,100939.47
2022-11-01T18:49:01.230Z,100937.09
2022-11-01T18:51:32.862Z,100947.63
2022-11-01T18:54:08.331Z,100947.44
2022-11-01T18:56:38.935Z,100942.06
2022-11-01T18:59:36.602Z,100942.25
2022-11-01T19:02:13.395Z,100937.34
2022-11-01T19:04:42.880Z,100941.00
2022-11-01T19:07:15.131Z,100943.59
2022-11-01T19:10:00.323Z,100945.06
2022-11-01T19:12:29.778Z,100938.16
2022-11-01T19:15:24.800Z,100938.69
2022-11-01T19:18:03.448Z,100934.59
2022-11-01T19:20:32.359Z,100936.50
2022-11-01T19:23:00.639Z,100935.94
2022-11-01T19:25:35.972Z,100926.34
2022-11-01T19:28:15.594Z,100929.16
2022-11-01T19:30:47.432Z,100930.97
2022-11-01T19:33:21.666Z,100934.69
2022-11-01T19:35:53.957Z,100929.00
2022-11-01T19:38:21.449Z,100929.22
2022-11-01T19:40:52.458Z,100928.91
2022-11-01T19:43:20.466Z,100930.53
2022-11-01T19:45:50.463Z,100934.28
2022-11-01T19:48:21.035Z,100929.81
2022-11-01T19:50:48.292Z,100945.16
2022-11-01T19:53:33.941Z,100961.25
2022-11-01T19:56:05.484Z,100954.94
2022-11-01T19:58:51.797Z,100943.72
2022-11-01T20:01:21.332Z,100950.03
2022-11-01T20:03:59.148Z,100952.38
2022-11-01T20:06:35.709Z,100955.31
2022-11-01T20:09:06.318Z,100946.28
2022-11-01T20:11:33.835Z,100948.34
2022-11-01T20:14:01.065Z,100957.22
2022-11-01T20:16:27.521Z,100954.16
2022-11-01T20:18:54.373Z,100954.31
2022-11-01T20:21:20.912Z,100948.28
2022-11-01T20:23:47.475Z,100953.53
2022-11-01T20:26:15.071Z,100950.63
2022-11-01T20:28:41.578Z,100953.13
2022-11-01T20:31:10.887Z,100937.94
2022-11-01T20:33:40.208Z,100941.25
2022-11-01T20:36:11.232Z,100947.66
2022-11-01T20:38:40.229Z,100971.09
2022-11-01T20:41:07.555Z,100968.50
2022-11-01T20:43:35.648Z,100969.44
2022-11-01T20:46:04.634Z,100964.72
2022-11-01T20:48:31.843Z,100953.44
2022-11-01T20:51:00.025Z,100952.34
2022-11-01T20:53:31.230Z,100957.63
2022-11-01T20:55:59.369Z,100954.34
2022-11-01T20:58:28.726Z,100958.59
2022-11-01T21:00:56.428Z,100963.72
2022-11-01T21:03:28.202Z,100951.97
2022-11-01T21:05:58.839Z,100948.78
2022-11-01T21:08:38.576Z,100953.19
2022-11-01T21:14:46.350Z,100945.84
2022-11-01T21:17:20.587Z,100947.16
2022-11-01T21:19:55.717Z,100955.59
2022-11-01T21:22:24.446Z,100958.22
2022-11-01T21:24:53.276Z,100964.38
2022-11-01T21:30:25.112Z,100965.31
2022-11-01T21:32:52.925Z,100949.66
2022-11-01T21:35:42.591Z,100961.06
2022-11-01T21:38:49.819Z,100968.41
2022-11-01T21:41:33.535Z,100962.25
2022-11-01T21:44:17.265Z,100962.59
2022-11-01T21:46:53.601Z,100972.31
2022-11-01T21:49:32.410Z,100971.13
2022-11-01T21:52:02.005Z,100960.47
2022-11-01T21:54:31.850Z,100969.16
2022-11-01T21:57:00.578Z,100974.03
2022-11-01T21:59:28.604Z,100968.47
2022-11-01T22:01:55.982Z,100970.09
2022-11-01T22:04:23.385Z,100968.00
2022-11-01T22:06:52.697Z,100964.97
2022-11-01T22:09:19.711Z,100961.22
2022-11-01T22:11:46.198Z,100959.53
2022-11-01T22:14:12.687Z,100968.81
2022-11-01T22:16:39.867Z,100958.94
2022-11-01T22:19:06.440Z,100955.69
2022-11-01T22:21:33.217Z,100960.47
2022-11-01T22:24:00.140Z,100957.84
2022-11-01T22:26:29.221Z,100953.66
2022-11-01T22:28:55.976Z,100956.81
2022-11-01T22:31:22.826Z,100971.91
2022-11-01T22:33:53.464Z,100971.28
2022-11-01T22:36:30.577Z,100979.22
2022-11-01T22:39:01.618Z,100973.94
2022-11-01T22:41:34.479Z,100979.47
2022-11-01T22:44:32.687Z,100981.91
2022-11-01T22:47:01.868Z,100976.53
2022-11-01T22:49:32.741Z,100970.69
2022-11-01T22:52:05.464Z,100963.50
2022-11-01T22:54:41.853Z,100968.66
2022-11-01T22:57:08.209Z,100966.06
2022-11-01T22:59:42.224Z,100977.06
2022-11-01T23:02:27.529Z,100975.97
2022-11-01T23:05:06.004Z,100969.13
2022-11-01T23:07:44.562Z,100961.56
2022-11-01T23:10:30.641Z,100980.56
2022-11-01T23:13:27.432Z,100981.25
2022-11-01T23:16:15.658Z,100979.28
2022-11-01T23:18:43.353Z,100982.59
2022-11-01T23:21:10.038Z,100981.81
2022-11-01T23:23:39.890Z,100987.88
2022-11-01T23:26:06.579Z,100990.63
2022-11-01T23:28:35.219Z,100991.50
2022-11-01T23:31:04.648Z,100993.78
2022-11-01T23:33:39.900Z,100986.03
2022-11-01T23:36:19.877Z,100982.06
2022-11-01T23:38:49.039Z,100981.59
2022-11-01T23:41:42.925Z,100977.41
2022-11-01T23:44:19.784Z,100983.59
2022-11-01T23:46:46.295Z,100983.50
2022-11-01T23:49:29.562Z,100996.59
2022-11-01T23:51:55.998Z,100988.50
2022-11-01T23:54:25.217Z,100996.69
2022-11-01T23:56:51.856Z,100996.75
2022-11-01T23:59:18.285Z,101001.22
